createdAt,value
2018-12-16T00:02:18.031Z,29.03
2018-12-16T00:04:46.685Z,26.60
2018-12-16T00:07:06.752Z,27.40
2018-12-16T00:09:29.899Z,28.47
2018-12-16T00:11:53.030Z,28.53
2018-12-16T00:14:16.161Z,27.87
2018-12-16T00:16:39.330Z,31.47
2018-12-16T00:19:02.503Z,28.47
2018-12-16T00:21:25.659Z,30.73
2018-12-16T00:23:48.791Z,27.07
2018-12-16T00:26:12.153Z,31.93
2018-12-16T00:28:35.302Z,34.20
2018-12-16T00:30:58.442Z,36.17
2018-12-16T00:33:21.583Z,32.53
2018-12-16T00:35:44.715Z,36.13
2018-12-16T00:38:07.822Z,36.73
2018-12-16T00:40:30.968Z,34.20
2018-12-16T00:42:54.085Z,36.43
2018-12-16T00:45:17.279Z,36.23
2018-12-16T00:47:40.404Z,36.13
2018-12-16T00:50:04.141Z,36.80
2018-12-16T00:52:27.358Z,38.80
2018-12-16T00:54:50.528Z,38.93
2018-12-16T00:57:13.630Z,37.33
2018-12-16T00:59:36.777Z,38.80
2018-12-16T01:01:59.890Z,37.97
2018-12-16T01:04:23.159Z,36.70
2018-12-16T01:06:46.331Z,38.20
2018-12-16T01:09:09.451Z,39.23
2018-12-16T01:11:32.678Z,37.93
2018-12-16T01:13:55.801Z,37.40
2018-12-16T01:16:18.930Z,37.83
2018-12-16T01:18:42.102Z,36.87
2018-12-16T01:21:05.733Z,37.03
2018-12-16T01:23:29.656Z,39.43
2018-12-16T01:25:52.765Z,39.37
2018-12-16T01:28:15.927Z,35.23
2018-12-16T01:30:39.035Z,36.93
2018-12-16T01:33:02.557Z,37.40
2018-12-16T01:35:25.762Z,36.00
2018-12-16T01:37:48.859Z,40.23
2018-12-16T01:40:12.076Z,37.80
2018-12-16T01:42:36.090Z,35.57
2018-12-16T01:44:59.235Z,36.27
2018-12-16T01:47:22.357Z,37.17
2018-12-16T01:49:45.496Z,37.30
2018-12-16T01:52:08.645Z,35.20
2018-12-16T01:54:31.763Z,36.13
2018-12-16T01:56:54.990Z,33.10
2018-12-16T01:59:18.122Z,38.27
2018-12-16T02:01:43.181Z,39.57
2018-12-16T02:04:06.351Z,37.07
2018-12-16T02:06:29.474Z,37.83
2018-12-16T02:08:52.669Z,40.00
2018-12-16T02:11:15.800Z,40.57
2018-12-16T02:13:38.933Z,36.47
2018-12-16T02:16:02.151Z,40.10
2018-12-16T02:18:25.276Z,38.57
2018-12-16T02:20:48.382Z,39.03
2018-12-16T02:23:11.519Z,39.30
2018-12-16T02:25:34.647Z,39.97
2018-12-16T02:27:57.814Z,42.93
2018-12-16T02:30:26.425Z,42.73
2018-12-16T02:32:49.543Z,40.63
2018-12-16T02:35:12.716Z,41.80
2018-12-16T02:37:35.845Z,42.03
2018-12-16T02:39:59.096Z,43.07
2018-12-16T02:42:22.198Z,40.83
2018-12-16T02:44:45.406Z,41.57
2018-12-16T02:47:08.556Z,39.77
2018-12-16T02:49:31.761Z,39.17
2018-12-16T02:51:54.908Z,40.90
2018-12-16T02:54:18.012Z,38.67
2018-12-16T02:56:41.162Z,33.23
2018-12-16T02:59:04.324Z,36.47
2018-12-16T03:01:28.416Z,37.07
2018-12-16T03:03:51.551Z,36.87
2018-12-16T03:06:14.671Z,38.03
2018-12-16T03:08:37.823Z,34.70
2018-12-16T03:11:00.986Z,30.83
2018-12-16T03:13:24.123Z,39.33
2018-12-16T03:15:47.244Z,37.13
2018-12-16T03:18:10.382Z,34.23
2018-12-16T03:20:33.505Z,32.60
2018-12-16T03:22:56.670Z,35.50
2018-12-16T03:25:19.817Z,35.67
2018-12-16T03:27:42.979Z,33.30
2018-12-16T03:30:08.969Z,35.90
2018-12-16T03:32:32.101Z,36.13
2018-12-16T03:34:55.329Z,34.73
2018-12-16T03:37:18.439Z,36.57
2018-12-16T03:39:41.597Z,33.43
2018-12-16T03:42:04.819Z,31.90
2018-12-16T03:44:28.012Z,34.03
2018-12-16T03:46:51.197Z,33.00
2018-12-16T03:49:14.307Z,33.97
2018-12-16T03:51:37.479Z,34.67
2018-12-16T03:54:00.596Z,34.20
2018-12-16T03:56:23.710Z,32.67
2018-12-16T03:58:58.643Z,35.80
2018-12-16T04:01:21.817Z,35.00
2018-12-16T04:03:44.989Z,32.80
2018-12-16T04:06:08.094Z,34.00
2018-12-16T04:08:31.256Z,34.37
2018-12-16T04:10:54.372Z,37.70
2018-12-16T04:13:17.473Z,34.03
2018-12-16T04:15:40.608Z,36.87
2018-12-16T04:18:03.732Z,33.03
2018-12-16T04:20:26.865Z,33.27
2018-12-16T04:22:49.964Z,31.30
2018-12-16T04:25:13.167Z,34.13
2018-12-16T04:27:37.368Z,34.53
2018-12-16T04:30:00.474Z,36.03
2018-12-16T04:32:24.284Z,35.57
2018-12-16T04:34:47.397Z,37.77
2018-12-16T04:37:10.593Z,36.60
2018-12-16T04:39:33.709Z,32.23
2018-12-16T04:41:56.802Z,32.90
2018-12-16T04:44:19.927Z,33.27
2018-12-16T04:46:43.056Z,35.37
2018-12-16T04:49:06.177Z,35.07
2018-12-16T04:51:29.313Z,32.63
2018-12-16T04:53:52.544Z,33.20
2018-12-16T04:56:15.661Z,34.93
2018-12-16T04:58:38.909Z,38.00
2018-12-16T05:01:02.006Z,36.63
2018-12-16T05:03:25.151Z,38.17
2018-12-16T05:05:48.312Z,40.27
2018-12-16T05:08:11.425Z,37.17
2018-12-16T05:10:34.616Z,37.90
2018-12-16T05:12:57.809Z,40.33
2018-12-16T05:15:20.991Z,40.80
2018-12-16T05:17:44.102Z,40.67
2018-12-16T05:20:07.284Z,39.90
2018-12-16T05:22:30.399Z,44.00
2018-12-16T05:24:53.564Z,46.83
2018-12-16T05:27:16.698Z,44.73
2018-12-16T05:29:39.973Z,40.27
2018-12-16T05:32:03.104Z,43.70
2018-12-16T05:34:26.265Z,46.43
2018-12-16T05:36:49.371Z,46.83
2018-12-16T05:39:12.477Z,42.53
2018-12-16T05:41:35.642Z,48.63
2018-12-16T05:43:58.746Z,44.70
2018-12-16T05:46:21.885Z,47.30
2018-12-16T05:48:44.997Z,47.33
2018-12-16T05:51:08.135Z,44.87
2018-12-16T05:53:31.256Z,46.30
2018-12-16T05:55:54.428Z,46.63
2018-12-16T05:58:17.561Z,48.50
2018-12-16T06:00:40.672Z,43.70
2018-12-16T06:03:03.851Z,45.43
2018-12-16T06:05:27.027Z,39.70
2018-12-16T06:07:50.165Z,44.67
2018-12-16T06:10:13.294Z,41.73
2018-12-16T06:12:36.442Z,42.00
2018-12-16T06:14:59.554Z,40.77
2018-12-16T06:17:22.678Z,42.17
2018-12-16T06:19:45.867Z,40.30
2018-12-16T06:22:08.966Z,44.30
2018-12-16T06:24:32.100Z,41.10
2018-12-16T06:26:55.241Z,42.87
2018-12-16T06:29:18.397Z,41.97
2018-12-16T06:31:41.522Z,40.20
2018-12-16T06:34:04.642Z,40.87
2018-12-16T06:36:27.798Z,37.77
2018-12-16T06:38:50.884Z,40.50
2018-12-16T06:41:14.002Z,39.13
2018-12-16T06:43:37.141Z,39.00
2018-12-16T06:46:00.279Z,40.70
2018-12-16T06:48:23.418Z,39.47
2018-12-16T06:50:46.525Z,40.27
2018-12-16T06:53:09.648Z,39.60
2018-12-16T06:55:32.836Z,39.57
2018-12-16T06:57:55.964Z,41.07
2018-12-16T07:00:19.107Z,40.13
2018-12-16T07:02:42.286Z,40.37
2018-12-16T07:05:05.502Z,39.50
2018-12-16T07:07:28.652Z,36.93
2018-12-16T07:09:51.767Z,40.13
2018-12-16T07:12:14.907Z,39.97
2018-12-16T07:14:38.062Z,38.87
2018-12-16T07:17:01.282Z,39.13
2018-12-16T07:19:24.534Z,37.23
2018-12-16T07:21:47.643Z,34.80
2018-12-16T07:24:10.815Z,34.03
2018-12-16T07:26:34.046Z,40.80
2018-12-16T07:28:57.253Z,37.00
2018-12-16T07:31:20.389Z,35.43
2018-12-16T07:33:44.570Z,35.10
2018-12-16T07:36:08.078Z,34.23
2018-12-16T07:38:31.186Z,38.30
2018-12-16T07:40:54.337Z,35.30
2018-12-16T07:43:17.567Z,36.47
2018-12-16T07:45:40.778Z,32.63
2018-12-16T07:48:04.106Z,34.13
2018-12-16T07:50:27.238Z,34.77
2018-12-16T07:52:50.384Z,34.07
2018-12-16T07:55:13.502Z,36.03
2018-12-16T07:57:36.635Z,32.30
2018-12-16T07:59:59.775Z,32.73
2018-12-16T08:02:23.062Z,32.90
2018-12-16T08:04:46.202Z,31.17
2018-12-16T08:07:09.338Z,35.97
2018-12-16T08:09:33.301Z,35.20
2018-12-16T08:11:56.410Z,33.90
2018-12-16T08:14:20.493Z,30.63
2018-12-16T08:16:43.624Z,31.37
2018-12-16T08:19:07.195Z,32.27
2018-12-16T08:21:30.529Z,31.27
2018-12-16T08:23:53.656Z,30.57
2018-12-16T08:26:16.781Z,29.77
2018-12-16T08:28:39.921Z,30.83
2018-12-16T08:31:03.029Z,29.57
2018-12-16T08:33:26.212Z,28.63
2018-12-16T08:35:49.329Z,31.30
2018-12-16T08:38:12.456Z,32.90
2018-12-16T08:40:35.609Z,30.23
2018-12-16T08:42:58.735Z,29.83
2018-12-16T08:45:21.917Z,28.00
2018-12-16T08:47:45.057Z,30.57
2018-12-16T08:50:08.212Z,31.43
2018-12-16T08:52:31.350Z,31.50
2018-12-16T08:54:54.499Z,27.60
2018-12-16T08:57:17.639Z,26.23
2018-12-16T08:59:40.784Z,26.77
2018-12-16T09:02:03.898Z,30.07
2018-12-16T09:04:27.031Z,29.83
2018-12-16T09:06:51.175Z,29.53
2018-12-16T09:09:14.430Z,27.70
2018-12-16T09:11:37.551Z,31.50
2018-12-16T09:14:00.683Z,31.80
2018-12-16T09:16:24.615Z,30.83
2018-12-16T09:18:47.725Z,28.13
2018-12-16T09:21:10.912Z,28.90
2018-12-16T09:23:34.034Z,29.93
2018-12-16T09:25:57.140Z,29.03
2018-12-16T09:28:20.268Z,30.97
2018-12-16T09:30:43.377Z,31.20
2018-12-16T09:33:06.532Z,28.10
2018-12-16T09:35:29.704Z,27.27
2018-12-16T09:37:52.878Z,30.10
2018-12-16T09:40:16.012Z,31.43
2018-12-16T09:42:39.124Z,27.27
2018-12-16T09:45:02.279Z,30.80
2018-12-16T09:47:25.452Z,30.43
2018-12-16T09:49:48.719Z,28.00
2018-12-16T09:52:11.826Z,28.93
2018-12-16T09:54:34.941Z,30.27
2018-12-16T09:56:58.096Z,30.40
2018-12-16T09:59:21.252Z,28.80
2018-12-16T10:01:44.527Z,28.00
2018-12-16T10:04:07.726Z,33.13
2018-12-16T10:06:30.915Z,31.13
2018-12-16T10:08:54.068Z,32.30
2018-12-16T10:11:17.221Z,31.67
2018-12-16T10:13:40.360Z,30.90
2018-12-16T10:16:03.572Z,30.33
2018-12-16T10:18:26.695Z,29.73
2018-12-16T10:20:49.872Z,29.17
2018-12-16T10:23:12.999Z,30.73
2018-12-16T10:25:36.277Z,30.37
2018-12-16T10:27:59.403Z,32.70
2018-12-16T10:30:22.559Z,31.57
2018-12-16T10:32:45.690Z,32.40
2018-12-16T10:35:08.821Z,31.47
2018-12-16T10:37:32.093Z,29.80
2018-12-16T10:39:55.227Z,33.93
2018-12-16T10:42:18.377Z,32.37
2018-12-16T10:44:41.564Z,29.50
2018-12-16T10:47:04.701Z,31.27
2018-12-16T10:49:27.828Z,30.67
2018-12-16T10:51:50.956Z,31.57
2018-12-16T10:54:14.141Z,32.67
2018-12-16T10:56:37.246Z,32.03
2018-12-16T10:59:00.451Z,30.50
2018-12-16T11:01:28.449Z,29.60
2018-12-16T11:03:51.560Z,30.43
2018-12-16T11:06:14.689Z,30.63
2018-12-16T11:08:38.268Z,34.13
2018-12-16T11:11:01.412Z,32.67
2018-12-16T11:13:24.651Z,33.50
2018-12-16T11:15:47.802Z,33.50
2018-12-16T11:18:10.936Z,29.80
2018-12-16T11:20:34.120Z,32.17
2018-12-16T11:22:57.234Z,31.20
2018-12-16T11:25:20.459Z,34.23
2018-12-16T11:27:43.545Z,31.13
2018-12-16T11:30:07.474Z,31.37
2018-12-16T11:32:30.620Z,32.23
2018-12-16T11:34:53.827Z,30.63
2018-12-16T11:37:17.032Z,28.87
2018-12-16T11:39:40.176Z,29.77
2018-12-16T11:42:03.359Z,28.20
2018-12-16T11:44:27.330Z,26.37
2018-12-16T11:46:50.520Z,28.77
2018-12-16T11:49:13.688Z,27.83
2018-12-16T11:51:37.269Z,30.27
2018-12-16T11:54:00.413Z,29.07
2018-12-16T11:56:23.574Z,29.93
2018-12-16T11:58:46.693Z,32.47
2018-12-16T12:01:09.861Z,28.93
2018-12-16T12:03:33.023Z,28.60
2018-12-16T12:05:56.195Z,28.70
2018-12-16T12:08:19.331Z,32.20
2018-12-16T12:10:42.449Z,26.77
2018-12-16T12:13:05.611Z,30.47
2018-12-16T12:15:28.748Z,26.73
2018-12-16T12:17:51.920Z,27.00
2018-12-16T12:22:34.074Z,27.50
2018-12-16T12:24:57.229Z,28.77
2018-12-16T12:27:20.335Z,27.30
2018-12-16T12:29:43.521Z,26.67
2018-12-16T12:32:06.666Z,28.83
2018-12-16T12:34:29.831Z,28.33
2018-12-16T12:36:53.139Z,27.03
2018-12-16T12:39:16.251Z,26.93
2018-12-16T12:41:39.355Z,24.70
2018-12-16T12:44:02.614Z,27.03
2018-12-16T12:46:25.800Z,29.03
2018-12-16T12:48:48.929Z,28.73
2018-12-16T12:51:12.165Z,26.73
2018-12-16T12:53:35.276Z,24.03
2018-12-16T12:55:58.394Z,26.87
2018-12-16T12:58:21.547Z,27.90
2018-12-16T13:00:44.683Z,26.40
2018-12-16T13:03:07.932Z,27.03
2018-12-16T13:05:36.854Z,27.33
2018-12-16T13:07:56.209Z,26.73
2018-12-16T13:10:19.362Z,26.60
2018-12-16T13:12:42.536Z,25.70
2018-12-16T13:15:05.977Z,27.87
2018-12-16T13:17:29.108Z,24.93
2018-12-16T13:19:52.407Z,26.03
2018-12-16T13:22:15.638Z,30.07
2018-12-16T13:24:46.531Z,27.60
2018-12-16T13:27:09.694Z,26.43
2018-12-16T13:29:32.840Z,26.07
2018-12-16T13:31:56.137Z,26.00
2018-12-16T13:34:19.272Z,25.43
2018-12-16T13:36:42.412Z,29.60
2018-12-16T13:39:06.369Z,25.50
2018-12-16T13:41:29.490Z,25.80
2018-12-16T13:43:52.616Z,25.70
2018-12-16T13:46:15.766Z,26.23
2018-12-16T13:48:38.893Z,27.27
2018-12-16T13:51:02.033Z,26.73
2018-12-16T13:53:25.145Z,29.87
2018-12-16T13:55:48.294Z,26.67
2018-12-16T13:58:11.461Z,26.60
2018-12-16T14:00:34.577Z,24.37
2018-12-16T14:02:57.828Z,26.70
2018-12-16T14:05:21.019Z,28.00
2018-12-16T14:07:44.146Z,28.23
2018-12-16T14:10:07.408Z,25.60
2018-12-16T14:12:30.551Z,24.87
2018-12-16T14:14:53.806Z,26.30
2018-12-16T14:19:49.847Z,24.07
2018-12-16T14:22:13.018Z,25.40
2018-12-16T14:24:36.164Z,27.80
2018-12-16T14:26:59.390Z,25.07
2018-12-16T14:29:22.565Z,24.40
2018-12-16T14:31:45.692Z,25.03
2018-12-16T14:34:08.866Z,28.60
2018-12-16T14:36:31.995Z,24.53
2018-12-16T14:38:55.188Z,30.53
2018-12-16T14:41:18.379Z,27.23
2018-12-16T14:43:41.629Z,25.23
2018-12-16T14:46:04.925Z,28.10
2018-12-16T14:48:28.072Z,26.03
2018-12-16T14:50:51.236Z,25.67
2018-12-16T14:53:14.352Z,23.30
2018-12-16T14:55:37.545Z,26.93
2018-12-16T14:58:00.663Z,26.87
2018-12-16T15:00:23.768Z,26.00
2018-12-16T15:02:46.965Z,28.00
2018-12-16T15:05:10.153Z,25.17
2018-12-16T15:07:33.377Z,25.43
2018-12-16T15:09:56.523Z,26.40
2018-12-16T15:12:20.536Z,26.87
2018-12-16T15:14:43.859Z,27.00
2018-12-16T15:17:06.967Z,25.60
2018-12-16T15:19:30.188Z,24.67
2018-12-16T15:21:53.334Z,23.97
2018-12-16T15:24:16.466Z,26.37
2018-12-16T15:26:39.656Z,27.83
2018-12-16T15:29:02.773Z,29.97
2018-12-16T15:31:25.947Z,27.03
2018-12-16T15:33:49.115Z,27.50
2018-12-16T15:36:12.234Z,29.80
2018-12-16T15:38:35.368Z,29.73
2018-12-16T15:40:58.542Z,28.87
2018-12-16T15:43:21.669Z,27.17
2018-12-16T15:45:44.844Z,26.57
2018-12-16T15:48:08.018Z,28.03
2018-12-16T15:50:31.164Z,28.20
2018-12-16T15:52:54.327Z,26.53
2018-12-16T15:55:17.459Z,25.63
2018-12-16T15:57:40.626Z,27.67
2018-12-16T16:00:06.255Z,28.57
2018-12-16T16:02:29.389Z,31.27
2018-12-16T16:04:52.546Z,27.10
2018-12-16T16:07:15.686Z,29.13
2018-12-16T16:09:38.887Z,28.27
2018-12-16T16:12:02.074Z,27.97
2018-12-16T16:14:25.255Z,27.63
2018-12-16T16:16:48.387Z,26.07
2018-12-16T16:19:11.595Z,29.93
2018-12-16T16:21:34.797Z,29.80
2018-12-16T16:23:59.109Z,28.77
2018-12-16T16:26:22.236Z,26.67
2018-12-16T16:28:45.397Z,27.10
2018-12-16T16:31:08.613Z,27.03
2018-12-16T16:33:31.950Z,26.67
2018-12-16T16:35:55.229Z,27.03
2018-12-16T16:38:18.365Z,28.77
2018-12-16T16:40:41.661Z,29.53
2018-12-16T16:43:04.802Z,25.27
2018-12-16T16:45:27.962Z,29.47
2018-12-16T16:47:51.083Z,27.87
2018-12-16T16:50:14.331Z,26.50
2018-12-16T16:52:37.456Z,27.47
2018-12-16T16:55:00.581Z,31.53
2018-12-16T16:57:23.781Z,29.47
2018-12-16T16:59:46.889Z,29.40
2018-12-16T17:02:10.010Z,30.03
2018-12-16T17:04:33.287Z,27.93
2018-12-16T17:06:56.465Z,32.53
2018-12-16T17:09:19.562Z,28.33
2018-12-16T17:11:42.850Z,28.70
2018-12-16T17:14:06.006Z,30.10
2018-12-16T17:16:29.206Z,26.53
2018-12-16T17:18:52.856Z,26.20
2018-12-16T17:21:16.067Z,29.23
2018-12-16T17:23:39.231Z,27.23
2018-12-16T17:26:02.430Z,29.73
2018-12-16T17:28:25.594Z,28.47
2018-12-16T17:30:48.745Z,29.97
2018-12-16T17:33:11.870Z,27.93
2018-12-16T17:35:35.116Z,27.33
2018-12-16T17:37:58.332Z,27.23
2018-12-16T17:40:21.448Z,26.63
2018-12-16T17:42:44.610Z,26.27
2018-12-16T17:45:08.341Z,27.47
2018-12-16T17:47:31.544Z,29.80
2018-12-16T17:49:54.668Z,27.77
2018-12-16T17:52:17.792Z,27.53
2018-12-16T17:54:40.937Z,28.00
2018-12-16T17:57:04.139Z,27.83
2018-12-16T17:59:27.279Z,25.07
2018-12-16T18:01:50.743Z,25.70
2018-12-16T18:04:13.899Z,25.50
2018-12-16T18:06:37.124Z,25.83
2018-12-16T18:09:00.292Z,27.17
2018-12-16T18:11:24.615Z,26.47
2018-12-16T18:13:47.755Z,26.07
2018-12-16T18:16:10.898Z,26.97
2018-12-16T18:18:34.025Z,26.47
2018-12-16T18:20:58.068Z,28.43
2018-12-16T18:23:21.220Z,26.07
2018-12-16T18:25:44.359Z,26.37
2018-12-16T18:28:07.613Z,27.67
2018-12-16T18:30:30.730Z,28.10
2018-12-16T18:32:53.914Z,30.20
2018-12-16T18:35:17.091Z,29.70
2018-12-16T18:37:40.375Z,26.30
2018-12-16T18:40:04.644Z,27.00
2018-12-16T18:42:27.748Z,30.03
2018-12-16T18:44:50.916Z,28.43
2018-12-16T18:47:14.528Z,28.27
2018-12-16T18:49:37.646Z,25.33
2018-12-16T18:52:00.809Z,25.53
2018-12-16T18:54:24.191Z,28.27
2018-12-16T18:56:51.076Z,25.20
2018-12-16T18:59:12.458Z,27.07
2018-12-16T19:01:35.614Z,27.53
2018-12-16T19:03:58.849Z,29.07
2018-12-16T19:06:22.001Z,25.47
2018-12-16T19:08:45.179Z,25.53
2018-12-16T19:11:08.304Z,26.53
2018-12-16T19:13:31.485Z,27.87
2018-12-16T19:15:54.622Z,26.13
2018-12-16T19:18:18.126Z,26.70
2018-12-16T19:20:41.267Z,26.23
2018-12-16T19:23:04.430Z,25.97
2018-12-16T19:25:27.563Z,25.80
2018-12-16T19:27:50.748Z,25.10
2018-12-16T19:30:13.883Z,23.80
2018-12-16T19:32:37.052Z,24.83
2018-12-16T19:35:00.181Z,26.30
2018-12-16T19:37:23.602Z,27.47
2018-12-16T19:39:46.769Z,25.07
2018-12-16T19:42:09.909Z,26.37
2018-12-16T19:44:33.195Z,26.67
2018-12-16T19:46:56.374Z,25.50
2018-12-16T19:49:19.518Z,27.07
2018-12-16T19:51:42.662Z,29.50
2018-12-16T19:54:06.195Z,30.10
2018-12-16T19:56:29.352Z,26.33
2018-12-16T19:58:53.146Z,30.43
2018-12-16T20:01:16.821Z,28.80
2018-12-16T20:03:41.864Z,28.00
2018-12-16T20:06:10.602Z,26.87
2018-12-16T20:08:33.716Z,27.20
2018-12-16T20:10:56.849Z,28.60
2018-12-16T20:13:20.014Z,25.93
2018-12-16T20:15:43.189Z,28.97
2018-12-16T20:18:06.492Z,30.43
2018-12-16T20:20:30.538Z,38.33
2018-12-16T20:22:53.676Z,29.77
2018-12-16T20:25:16.860Z,30.67
2018-12-16T20:27:39.979Z,29.50
2018-12-16T20:30:03.328Z,29.40
2018-12-16T20:32:26.478Z,28.60
2018-12-16T20:34:49.574Z,28.77
2018-12-16T20:37:12.737Z,29.47
2018-12-16T20:39:35.851Z,32.17
2018-12-16T20:41:59.054Z,31.03
2018-12-16T20:44:22.183Z,27.93
2018-12-16T20:46:45.309Z,28.73
2018-12-16T20:49:08.533Z,30.33
2018-12-16T20:51:31.695Z,29.23
2018-12-16T20:53:54.942Z,30.67
2018-12-16T20:56:18.065Z,30.00
2018-12-16T20:58:41.188Z,29.77
2018-12-16T21:01:04.410Z,29.93
2018-12-16T21:03:27.532Z,29.67
2018-12-16T21:05:50.698Z,30.47
2018-12-16T21:08:13.838Z,29.73
2018-12-16T21:10:36.973Z,31.87
2018-12-16T21:13:06.060Z,32.00
2018-12-16T21:15:34.752Z,33.33
2018-12-16T21:18:03.264Z,31.90
2018-12-16T21:20:26.528Z,31.50
2018-12-16T21:22:49.701Z,29.93
2018-12-16T21:25:13.005Z,29.93
2018-12-16T21:27:36.201Z,33.80
2018-12-16T21:30:00.285Z,33.00
2018-12-16T21:32:30.122Z,29.97
2018-12-16T21:34:53.270Z,33.57
2018-12-16T21:37:16.395Z,34.87
2018-12-16T21:39:39.567Z,32.77
2018-12-16T21:42:02.708Z,35.37
2018-12-16T21:44:25.815Z,35.90
2018-12-16T21:46:49.054Z,33.33
2018-12-16T21:49:12.167Z,34.33
2018-12-16T21:51:35.306Z,31.43
2018-12-16T21:53:58.466Z,36.80
2018-12-16T21:56:21.589Z,33.23
2018-12-16T21:58:44.805Z,33.83
2018-12-16T22:01:07.922Z,31.37
2018-12-16T22:03:31.074Z,32.30
2018-12-16T22:05:54.270Z,33.30
2018-12-16T22:08:18.852Z,32.83
2018-12-16T22:10:41.976Z,33.47
2018-12-16T22:13:05.092Z,32.40
2018-12-16T22:15:28.199Z,34.60
2018-12-16T22:17:51.312Z,34.17
2018-12-16T22:20:14.730Z,33.77
2018-12-16T22:22:37.835Z,32.70
2018-12-16T22:25:00.953Z,31.37
2018-12-16T22:27:24.089Z,31.90
2018-12-16T22:29:47.204Z,32.70
2018-12-16T22:32:10.630Z,31.23
2018-12-16T22:34:33.775Z,37.20
2018-12-16T22:36:56.933Z,32.60
2018-12-16T22:39:20.061Z,38.13
2018-12-16T22:41:43.200Z,32.30
2018-12-16T22:44:06.664Z,35.07
2018-12-16T22:46:29.845Z,33.57
2018-12-16T22:48:52.949Z,30.07
2018-12-16T22:51:16.192Z,31.23
2018-12-16T22:53:39.347Z,35.73
2018-12-16T22:56:02.629Z,34.77
2018-12-16T22:58:25.756Z,33.10
2018-12-16T23:00:54.773Z,31.83
2018-12-16T23:03:17.907Z,34.17
2018-12-16T23:05:41.034Z,33.33
2018-12-16T23:08:04.202Z,30.60
2018-12-16T23:10:27.324Z,33.40
2018-12-16T23:12:50.581Z,32.63
2018-12-16T23:15:13.754Z,34.10
2018-12-16T23:17:36.874Z,37.13
2018-12-16T23:20:05.674Z,37.33
2018-12-16T23:22:28.812Z,36.00
2018-12-16T23:24:52.090Z,33.57
2018-12-16T23:27:15.225Z,35.50
2018-12-16T23:29:38.339Z,34.10
2018-12-16T23:32:01.502Z,34.27
2018-12-16T23:34:24.619Z,34.97
2018-12-16T23:36:47.836Z,38.53
2018-12-16T23:39:11.001Z,36.13
2018-12-16T23:41:34.109Z,34.73
2018-12-16T23:43:57.243Z,34.53
2018-12-16T23:46:20.380Z,37.53
2018-12-16T23:48:43.521Z,36.43
2018-12-16T23:51:06.639Z,36.80
2018-12-16T23:53:29.759Z,33.67
2018-12-16T23:55:52.870Z,34.77
2018-12-16T23:58:16.040Z,38.73
